sensor_id;sensor_type;location;lat;lon;timestamp;pressure;altitude;pressure_sealevel;temperature;humidity
64294;BME280;50636;45.596;5.258;2023-04-27T00:00:09;98657.66;;;13.99;57.95
64294;BME280;50636;45.596;5.258;2023-04-27T00:02:36;98668.06;;;13.94;58.45
64294;BME280;50636;45.596;5.258;2023-04-27T00:05:03;98670.34;;;13.72;58.81
64294;BME280;50636;45.596;5.258;2023-04-27T00:07:30;98660.56;;;13.61;59.46
64294;BME280;50636;45.596;5.258;2023-04-27T00:09:56;98666.91;;;13.71;59.04
64294;BME280;50636;45.596;5.258;2023-04-27T00:12:22;98669.34;;;13.73;58.98
64294;BME280;50636;45.596;5.258;2023-04-27T00:14:48;98664.16;;;13.66;59.30
64294;BME280;50636;45.596;5.258;2023-04-27T00:17:14;98652.06;;;13.58;59.67
64294;BME280;50636;45.596;5.258;2023-04-27T00:19:40;98658.44;;;13.51;59.96
64294;BME280;50636;45.596;5.258;2023-04-27T00:22:07;98666.03;;;13.59;60.32
64294;BME280;50636;45.596;5.258;2023-04-27T00:24:33;98663.75;;;13.81;59.77
64294;BME280;50636;45.596;5.258;2023-04-27T00:26:59;98659.44;;;13.87;59.15
64294;BME280;50636;45.596;5.258;2023-04-27T00:29:25;98665.25;;;13.58;58.81
64294;BME280;50636;45.596;5.258;2023-04-27T00:31:51;98652.91;;;13.34;60.05
64294;BME280;50636;45.596;5.258;2023-04-27T00:34:17;98658.34;;;13.39;60.12
64294;BME280;50636;45.596;5.258;2023-04-27T00:36:43;98652.41;;;13.44;60.13
64294;BME280;50636;45.596;5.258;2023-04-27T00:39:08;98653.00;;;13.46;59.90
64294;BME280;50636;45.596;5.258;2023-04-27T00:41:38;98648.19;;;13.43;60.36
64294;BME280;50636;45.596;5.258;2023-04-27T00:44:04;98654.16;;;13.50;60.48
64294;BME280;50636;45.596;5.258;2023-04-27T00:46:31;98651.38;;;13.63;59.83
64294;BME280;50636;45.596;5.258;2023-04-27T00:48:57;98657.25;;;13.65;59.53
64294;BME280;50636;45.596;5.258;2023-04-27T00:51:24;98662.53;;;13.65;59.21
64294;BME280;50636;45.596;5.258;2023-04-27T00:53:56;98663.53;;;13.46;59.14
64294;BME280;50636;45.596;5.258;2023-04-27T00:56:23;98657.75;;;13.37;60.01
64294;BME280;50636;45.596;5.258;2023-04-27T00:58:49;98653.22;;;13.44;59.75
64294;BME280;50636;45.596;5.258;2023-04-27T01:01:15;98652.16;;;13.27;59.52
64294;BME280;50636;45.596;5.258;2023-04-27T01:03:41;98648.31;;;13.29;60.06
64294;BME280;50636;45.596;5.258;2023-04-27T01:06:06;98649.78;;;13.44;60.19
64294;BME280;50636;45.596;5.258;2023-04-27T01:08:32;98652.56;;;13.49;59.90
64294;BME280;50636;45.596;5.258;2023-04-27T01:10:58;98641.72;;;13.57;59.94
64294;BME280;50636;45.596;5.258;2023-04-27T01:13:24;98650.66;;;13.74;59.44
64294;BME280;50636;45.596;5.258;2023-04-27T01:15:50;98644.19;;;13.89;58.82
64294;BME280;50636;45.596;5.258;2023-04-27T01:18:15;98643.16;;;13.90;58.38
64294;BME280;50636;45.596;5.258;2023-04-27T01:20:41;98648.19;;;13.91;58.25
64294;BME280;50636;45.596;5.258;2023-04-27T01:23:07;98651.72;;;13.85;57.89
64294;BME280;50636;45.596;5.258;2023-04-27T01:25:33;98656.75;;;13.56;58.36
64294;BME280;50636;45.596;5.258;2023-04-27T01:27:59;98659.84;;;13.28;59.16
64294;BME280;50636;45.596;5.258;2023-04-27T01:30:25;98664.13;;;13.04;60.00
64294;BME280;50636;45.596;5.258;2023-04-27T01:32:53;98665.94;;;13.04;60.49
64294;BME280;50636;45.596;5.258;2023-04-27T01:35:18;98659.56;;;13.18;60.67
64294;BME280;50636;45.596;5.258;2023-04-27T01:37:44;98668.81;;;13.46;60.10
64294;BME280;50636;45.596;5.258;2023-04-27T01:40:10;98666.53;;;13.68;58.58
64294;BME280;50636;45.596;5.258;2023-04-27T01:42:37;98665.59;;;13.62;58.85
64294;BME280;50636;45.596;5.258;2023-04-27T01:45:03;98669.19;;;13.68;58.70
64294;BME280;50636;45.596;5.258;2023-04-27T01:47:29;98660.84;;;13.71;58.32
64294;BME280;50636;45.596;5.258;2023-04-27T01:49:55;98661.63;;;13.71;58.31
64294;BME280;50636;45.596;5.258;2023-04-27T01:52:21;98666.03;;;13.59;58.47
64294;BME280;50636;45.596;5.258;2023-04-27T01:54:46;98676.72;;;13.46;58.27
64294;BME280;50636;45.596;5.258;2023-04-27T01:57:12;98672.19;;;13.28;59.14
64294;BME280;50636;45.596;5.258;2023-04-27T01:59:38;98672.66;;;13.25;59.75
64294;BME280;50636;45.596;5.258;2023-04-27T02:02:04;98675.03;;;13.33;59.89
64294;BME280;50636;45.596;5.258;2023-04-27T02:04:30;98672.28;;;13.46;59.67
64294;BME280;50636;45.596;5.258;2023-04-27T02:06:56;98671.25;;;13.47;59.26
64294;BME280;50636;45.596;5.258;2023-04-27T02:09:21;98673.19;;;13.52;59.14
64294;BME280;50636;45.596;5.258;2023-04-27T02:11:47;98665.66;;;13.55;58.94
64294;BME280;50636;45.596;5.258;2023-04-27T02:14:13;98664.72;;;13.50;58.92
64294;BME280;50636;45.596;5.258;2023-04-27T02:16:39;98664.56;;;13.63;59.10
64294;BME280;50636;45.596;5.258;2023-04-27T02:19:04;98665.00;;;13.78;58.22
64294;BME280;50636;45.596;5.258;2023-04-27T02:21:30;98667.06;;;13.76;58.42
64294;BME280;50636;45.596;5.258;2023-04-27T02:23:57;98657.69;;;13.81;58.37
64294;BME280;50636;45.596;5.258;2023-04-27T02:26:22;98650.84;;;13.91;57.95
64294;BME280;50636;45.596;5.258;2023-04-27T02:28:54;98659.44;;;13.87;57.75
64294;BME280;50636;45.596;5.258;2023-04-27T02:31:21;98665.94;;;13.84;57.65
64294;BME280;50636;45.596;5.258;2023-04-27T02:33:47;98665.59;;;13.81;57.76
64294;BME280;50636;45.596;5.258;2023-04-27T02:36:13;98669.16;;;13.86;57.90
64294;BME280;50636;45.596;5.258;2023-04-27T02:38:39;98665.13;;;13.84;57.55
64294;BME280;50636;45.596;5.258;2023-04-27T02:41:05;98666.59;;;13.79;57.61
64294;BME280;50636;45.596;5.258;2023-04-27T02:43:30;98669.91;;;13.93;57.64
64294;BME280;50636;45.596;5.258;2023-04-27T02:45:56;98667.78;;;14.14;57.46
64294;BME280;50636;45.596;5.258;2023-04-27T02:48:26;98664.84;;;14.22;56.32
64294;BME280;50636;45.596;5.258;2023-04-27T02:50:52;98661.56;;;14.08;56.37
64294;BME280;50636;45.596;5.258;2023-04-27T02:53:17;98669.41;;;13.85;56.95
64294;BME280;50636;45.596;5.258;2023-04-27T02:55:46;98669.03;;;13.81;57.67
64294;BME280;50636;45.596;5.258;2023-04-27T02:58:13;98665.22;;;13.77;57.80
64294;BME280;50636;45.596;5.258;2023-04-27T03:00:38;98662.53;;;13.65;58.00
64294;BME280;50636;45.596;5.258;2023-04-27T03:03:06;98658.25;;;13.46;58.34
64294;BME280;50636;45.596;5.258;2023-04-27T03:05:32;98658.44;;;13.32;58.90
64294;BME280;50636;45.596;5.258;2023-04-27T03:07:58;98664.38;;;13.21;59.19
64294;BME280;50636;45.596;5.258;2023-04-27T03:10:24;98664.00;;;13.17;59.80
64294;BME280;50636;45.596;5.258;2023-04-27T03:12:50;98652.50;;;13.12;59.85
64294;BME280;50636;45.596;5.258;2023-04-27T03:15:16;98654.69;;;12.96;60.35
64294;BME280;50636;45.596;5.258;2023-04-27T03:17:42;98656.22;;;12.79;60.70
64294;BME280;50636;45.596;5.258;2023-04-27T03:20:08;98651.16;;;12.77;61.60
64294;BME280;50636;45.596;5.258;2023-04-27T03:22:37;98652.94;;;12.84;61.63
64294;BME280;50636;45.596;5.258;2023-04-27T03:25:03;98653.53;;;12.86;61.23
64294;BME280;50636;45.596;5.258;2023-04-27T03:27:30;98656.63;;;12.83;61.09
64294;BME280;50636;45.596;5.258;2023-04-27T03:29:55;98661.09;;;12.82;61.43
64294;BME280;50636;45.596;5.258;2023-04-27T03:32:21;98657.59;;;12.88;61.16
64294;BME280;50636;45.596;5.258;2023-04-27T03:34:47;98661.94;;;12.76;61.07
64294;BME280;50636;45.596;5.258;2023-04-27T03:37:13;98655.19;;;12.55;61.37
64294;BME280;50636;45.596;5.258;2023-04-27T03:39:39;98661.75;;;12.46;62.04
64294;BME280;50636;45.596;5.258;2023-04-27T03:42:04;98670.91;;;12.36;62.43
64294;BME280;50636;45.596;5.258;2023-04-27T03:44:30;98664.72;;;12.24;62.51
64294;BME280;50636;45.596;5.258;2023-04-27T03:46:58;98660.94;;;12.13;63.62
64294;BME280;50636;45.596;5.258;2023-04-27T03:49:24;98667.47;;;12.04;64.13
64294;BME280;50636;45.596;5.258;2023-04-27T03:51:50;98662.00;;;12.06;64.42
64294;BME280;50636;45.596;5.258;2023-04-27T03:54:16;98656.72;;;12.06;64.34
64294;BME280;50636;45.596;5.258;2023-04-27T03:56:41;98655.31;;;12.03;64.29
64294;BME280;50636;45.596;5.258;2023-04-27T03:59:09;98661.16;;;12.05;65.04
64294;BME280;50636;45.596;5.258;2023-04-27T04:01:35;98660.56;;;12.10;64.32
64294;BME280;50636;45.596;5.258;2023-04-27T04:04:01;98661.94;;;12.12;64.42
64294;BME280;50636;45.596;5.258;2023-04-27T04:06:27;98672.06;;;12.09;65.02
64294;BME280;50636;45.596;5.258;2023-04-27T04:08:53;98668.41;;;12.16;64.99
64294;BME280;50636;45.596;5.258;2023-04-27T04:11:19;98667.31;;;12.31;64.40
64294;BME280;50636;45.596;5.258;2023-04-27T04:13:45;98667.28;;;12.37;63.97
64294;BME280;50636;45.596;5.258;2023-04-27T04:16:11;98666.44;;;12.37;63.87
64294;BME280;50636;45.596;5.258;2023-04-27T04:18:38;98671.72;;;12.37;63.85
64294;BME280;50636;45.596;5.258;2023-04-27T04:21:04;98671.50;;;12.38;63.69
64294;BME280;50636;45.596;5.258;2023-04-27T04:23:30;98670.66;;;12.45;63.03
64294;BME280;50636;45.596;5.258;2023-04-27T04:25:57;98668.22;;;12.43;63.21
64294;BME280;50636;45.596;5.258;2023-04-27T04:28:23;98669.94;;;12.31;63.34
64294;BME280;50636;45.596;5.258;2023-04-27T04:30:50;98674.06;;;12.20;63.83
64294;BME280;50636;45.596;5.258;2023-04-27T04:33:16;98682.81;;;12.07;64.08
64294;BME280;50636;45.596;5.258;2023-04-27T04:35:42;98686.09;;;11.96;64.68
64294;BME280;50636;45.596;5.258;2023-04-27T04:38:09;98690.97;;;11.86;64.82
64294;BME280;50636;45.596;5.258;2023-04-27T04:40:37;98694.44;;;11.79;65.05
64294;BME280;50636;45.596;5.258;2023-04-27T04:43:03;98688.19;;;11.74;65.49
64294;BME280;50636;45.596;5.258;2023-04-27T04:45:29;98685.56;;;11.74;65.62
64294;BME280;50636;45.596;5.258;2023-04-27T04:47:55;98691.00;;;11.72;66.27
64294;BME280;50636;45.596;5.258;2023-04-27T04:50:21;98688.38;;;11.72;65.84
64294;BME280;50636;45.596;5.258;2023-04-27T04:52:48;98692.63;;;11.80;66.03
64294;BME280;50636;45.596;5.258;2023-04-27T04:55:14;98699.09;;;11.77;65.50
64294;BME280;50636;45.596;5.258;2023-04-27T04:57:40;98696.47;;;11.71;65.40
64294;BME280;50636;45.596;5.258;2023-04-27T05:00:06;98695.44;;;11.78;65.71
64294;BME280;50636;45.596;5.258;2023-04-27T05:02:37;98694.16;;;12.01;65.11
64294;BME280;50636;45.596;5.258;2023-04-27T05:05:04;98694.66;;;12.30;64.49
64294;BME280;50636;45.596;5.258;2023-04-27T05:07:29;98693.91;;;12.79;63.21
64294;BME280;50636;45.596;5.258;2023-04-27T05:09:55;98689.31;;;13.00;62.19
64294;BME280;50636;45.596;5.258;2023-04-27T05:12:21;98689.81;;;13.09;61.27
64294;BME280;50636;45.596;5.258;2023-04-27T05:14:47;98693.91;;;13.05;61.72
64294;BME280;50636;45.596;5.258;2023-04-27T05:17:13;98696.25;;;13.38;61.83
64294;BME280;50636;45.596;5.258;2023-04-27T05:19:39;98687.63;;;13.86;59.51
64294;BME280;50636;45.596;5.258;2023-04-27T05:22:05;98693.13;;;14.03;59.12
64294;BME280;50636;45.596;5.258;2023-04-27T05:24:32;98694.50;;;14.06;58.67
64294;BME280;50636;45.596;5.258;2023-04-27T05:26:58;98696.69;;;13.90;58.45
64294;BME280;50636;45.596;5.258;2023-04-27T05:29:24;98691.84;;;14.06;58.07
64294;BME280;50636;45.596;5.258;2023-04-27T05:31:50;98690.81;;;14.25;57.33
64294;BME280;50636;45.596;5.258;2023-04-27T05:34:16;98694.41;;;14.73;57.53
64294;BME280;50636;45.596;5.258;2023-04-27T05:36:42;98691.06;;;15.72;54.92
64294;BME280;50636;45.596;5.258;2023-04-27T05:39:07;98690.13;;;16.47;51.75
64294;BME280;50636;45.596;5.258;2023-04-27T05:41:33;98690.19;;;17.15;50.33
64294;BME280;50636;45.596;5.258;2023-04-27T05:43:59;98688.28;;;17.71;48.37
64294;BME280;50636;45.596;5.258;2023-04-27T05:46:25;98686.72;;;18.47;47.12
64294;BME280;50636;45.596;5.258;2023-04-27T05:48:51;98692.94;;;19.22;44.72
64294;BME280;50636;45.596;5.258;2023-04-27T05:51:17;98698.09;;;19.92;42.44
64294;BME280;50636;45.596;5.258;2023-04-27T05:53:42;98693.75;;;20.80;41.35
64294;BME280;50636;45.596;5.258;2023-04-27T05:56:08;98696.91;;;21.23;39.39
64294;BME280;50636;45.596;5.258;2023-04-27T05:58:36;98704.16;;;21.12;39.54
64294;BME280;50636;45.596;5.258;2023-04-27T06:01:02;98704.09;;;21.32;38.28
64294;BME280;50636;45.596;5.258;2023-04-27T06:03:29;98715.09;;;21.00;38.37
64294;BME280;50636;45.596;5.258;2023-04-27T06:05:56;98704.44;;;20.85;38.90
64294;BME280;50636;45.596;5.258;2023-04-27T06:08:23;98717.78;;;20.74;39.81
64294;BME280;50636;45.596;5.258;2023-04-27T06:10:52;98716.19;;;20.99;38.61
64294;BME280;50636;45.596;5.258;2023-04-27T06:13:18;98717.50;;;21.07;38.50
64294;BME280;50636;45.596;5.258;2023-04-27T06:15:45;98726.00;;;21.34;38.04
64294;BME280;50636;45.596;5.258;2023-04-27T06:18:11;98718.22;;;21.59;37.78
64294;BME280;50636;45.596;5.258;2023-04-27T06:20:37;98708.88;;;22.21;36.57
64294;BME280;50636;45.596;5.258;2023-04-27T06:23:03;98709.38;;;22.73;36.88
64294;BME280;50636;45.596;5.258;2023-04-27T06:25:29;98712.19;;;23.75;35.05
64294;BME280;50636;45.596;5.258;2023-04-27T06:27:56;98717.41;;;24.47;33.67
64294;BME280;50636;45.596;5.258;2023-04-27T06:30:23;98704.78;;;25.32;31.68
64294;BME280;50636;45.596;5.258;2023-04-27T06:32:50;98701.78;;;25.20;31.12
64294;BME280;50636;45.596;5.258;2023-04-27T06:35:16;98705.88;;;24.46;32.26
64294;BME280;50636;45.596;5.258;2023-04-27T06:37:42;98705.81;;;24.70;32.21
64294;BME280;50636;45.596;5.258;2023-04-27T06:40:09;98693.00;;;25.14;31.57
64294;BME280;50636;45.596;5.258;2023-04-27T06:42:36;98693.47;;;25.90;30.84
64294;BME280;50636;45.596;5.258;2023-04-27T06:45:02;98685.91;;;26.51;29.75
64294;BME280;50636;45.596;5.258;2023-04-27T06:47:29;98684.59;;;26.85;29.33
64294;BME280;50636;45.596;5.258;2023-04-27T06:49:55;98688.88;;;27.18;29.34
64294;BME280;50636;45.596;5.258;2023-04-27T06:52:21;98692.03;;;27.20;28.50
64294;BME280;50636;45.596;5.258;2023-04-27T06:54:47;98673.13;;;26.57;29.72
64294;BME280;50636;45.596;5.258;2023-04-27T06:57:13;98684.72;;;26.80;29.56
64294;BME280;50636;45.596;5.258;2023-04-27T06:59:38;98685.41;;;26.49;29.76
64294;BME280;50636;45.596;5.258;2023-04-27T07:02:05;98678.75;;;26.47;29.51
64294;BME280;50636;45.596;5.258;2023-04-27T07:04:32;98684.97;;;25.97;29.88
64294;BME280;50636;45.596;5.258;2023-04-27T07:06:57;98696.03;;;25.68;30.56
64294;BME280;50636;45.596;5.258;2023-04-27T07:09:23;98682.47;;;25.87;30.14
64294;BME280;50636;45.596;5.258;2023-04-27T07:11:49;98688.31;;;26.76;29.92
64294;BME280;50636;45.596;5.258;2023-04-27T07:14:15;98683.13;;;27.91;27.93
64294;BME280;50636;45.596;5.258;2023-04-27T07:16:41;98686.47;;;28.31;26.97
64294;BME280;50636;45.596;5.258;2023-04-27T07:19:09;98694.09;;;28.90;26.00
64294;BME280;50636;45.596;5.258;2023-04-27T07:21:35;98683.84;;;29.22;25.05
64294;BME280;50636;45.596;5.258;2023-04-27T07:24:01;98684.56;;;29.78;24.63
64294;BME280;50636;45.596;5.258;2023-04-27T07:26:28;98670.75;;;30.55;23.52
64294;BME280;50636;45.596;5.258;2023-04-27T07:28:56;98666.38;;;31.09;23.30
64294;BME280;50636;45.596;5.258;2023-04-27T07:31:22;98652.91;;;31.98;22.41
64294;BME280;50636;45.596;5.258;2023-04-27T07:33:48;98666.41;;;32.51;22.29
64294;BME280;50636;45.596;5.258;2023-04-27T07:36:14;98662.53;;;33.09;21.42
64294;BME280;50636;45.596;5.258;2023-04-27T07:38:40;98656.22;;;33.56;20.74
64294;BME280;50636;45.596;5.258;2023-04-27T07:41:08;98661.25;;;33.70;20.25
64294;BME280;50636;45.596;5.258;2023-04-27T07:43:35;98664.31;;;33.68;19.90
64294;BME280;50636;45.596;5.258;2023-04-27T07:46:01;98655.25;;;33.99;19.94
64294;BME280;50636;45.596;5.258;2023-04-27T07:48:27;98658.59;;;34.28;19.68
64294;BME280;50636;45.596;5.258;2023-04-27T07:50:53;98655.03;;;34.67;19.82
64294;BME280;50636;45.596;5.258;2023-04-27T07:53:19;98654.56;;;35.07;19.10
64294;BME280;50636;45.596;5.258;2023-04-27T07:55:45;98644.41;;;35.54;19.15
64294;BME280;50636;45.596;5.258;2023-04-27T07:58:12;98644.09;;;36.19;18.32
64294;BME280;50636;45.596;5.258;2023-04-27T08:00:37;98633.72;;;36.70;17.71
64294;BME280;50636;45.596;5.258;2023-04-27T08:03:03;98637.25;;;37.15;17.94
64294;BME280;50636;45.596;5.258;2023-04-27T08:05:29;98642.47;;;37.34;17.10
64294;BME280;50636;45.596;5.258;2023-04-27T08:07:55;98637.50;;;36.99;17.12
64294;BME280;50636;45.596;5.258;2023-04-27T08:10:21;98642.19;;;37.02;17.11
64294;BME280;50636;45.596;5.258;2023-04-27T08:12:47;98638.47;;;37.21;17.32
64294;BME280;50636;45.596;5.258;2023-04-27T08:15:13;98640.53;;;36.87;17.61
64294;BME280;50636;45.596;5.258;2023-04-27T08:17:40;98645.06;;;36.72;17.65
64294;BME280;50636;45.596;5.258;2023-04-27T08:20:07;98644.91;;;36.57;17.80
64294;BME280;50636;45.596;5.258;2023-04-27T08:22:39;98636.59;;;36.47;17.99
64294;BME280;50636;45.596;5.258;2023-04-27T08:25:06;98633.50;;;36.52;18.10
64294;BME280;50636;45.596;5.258;2023-04-27T08:27:35;98635.91;;;36.57;18.01
64294;BME280;50636;45.596;5.258;2023-04-27T08:30:01;98632.16;;;36.72;17.31
64294;BME280;50636;45.596;5.258;2023-04-27T08:32:27;98635.69;;;36.35;17.67
64294;BME280;50636;45.596;5.258;2023-04-27T08:34:53;98645.09;;;35.74;18.25
64294;BME280;50636;45.596;5.258;2023-04-27T08:37:19;98640.53;;;35.85;18.29
64294;BME280;50636;45.596;5.258;2023-04-27T08:39:46;98632.91;;;36.28;18.11
64294;BME280;50636;45.596;5.258;2023-04-27T08:42:13;98635.00;;;36.46;17.95
64294;BME280;50636;45.596;5.258;2023-04-27T08:44:42;98648.16;;;36.70;17.60
64294;BME280;50636;45.596;5.258;2023-04-27T08:47:09;98653.88;;;36.54;17.09
64294;BME280;50636;45.596;5.258;2023-04-27T08:49:36;98645.69;;;36.58;16.71
64294;BME280;50636;45.596;5.258;2023-04-27T08:52:13;98641.75;;;36.96;16.28
64294;BME280;50636;45.596;5.258;2023-04-27T08:54:39;98647.25;;;37.48;16.20
64294;BME280;50636;45.596;5.258;2023-04-27T08:57:12;98640.50;;;37.97;16.21
64294;BME280;50636;45.596;5.258;2023-04-27T08:59:39;98644.69;;;37.73;16.67
64294;BME280;50636;45.596;5.258;2023-04-27T09:02:06;98649.38;;;37.76;15.73
64294;BME280;50636;45.596;5.258;2023-04-27T09:04:38;98652.75;;;37.52;16.15
64294;BME280;50636;45.596;5.258;2023-04-27T09:07:15;98649.38;;;37.76;16.14
64294;BME280;50636;45.596;5.258;2023-04-27T09:09:42;98649.53;;;38.05;15.51
64294;BME280;50636;45.596;5.258;2023-04-27T09:12:19;98640.75;;;39.05;15.36
64294;BME280;50636;45.596;5.258;2023-04-27T09:15:02;98644.16;;;39.81;14.71
64294;BME280;50636;45.596;5.258;2023-04-27T09:17:29;98640.81;;;40.26;15.21
64294;BME280;50636;45.596;5.258;2023-04-27T09:20:08;98642.19;;;39.89;14.74
64294;BME280;50636;45.596;5.258;2023-04-27T09:22:44;98641.09;;;39.50;15.22
64294;BME280;50636;45.596;5.258;2023-04-27T09:25:31;98637.09;;;39.73;14.92
64294;BME280;50636;45.596;5.258;2023-04-27T09:27:59;98641.06;;;39.58;15.01
64294;BME280;50636;45.596;5.258;2023-04-27T09:30:26;98638.63;;;39.88;15.10
64294;BME280;50636;45.596;5.258;2023-04-27T09:32:55;98634.19;;;40.12;14.53
64294;BME280;50636;45.596;5.258;2023-04-27T09:35:26;98642.56;;;39.87;14.55
64294;BME280;50636;45.596;5.258;2023-04-27T09:37:52;98632.50;;;39.12;14.82
64294;BME280;50636;45.596;5.258;2023-04-27T09:40:20;98639.88;;;38.44;15.73
64294;BME280;50636;45.596;5.258;2023-04-27T09:42:59;98645.66;;;38.21;15.53
64294;BME280;50636;45.596;5.258;2023-04-27T09:45:28;98650.22;;;37.88;15.96
64294;BME280;50636;45.596;5.258;2023-04-27T09:47:54;98645.66;;;37.44;16.21
64294;BME280;50636;45.596;5.258;2023-04-27T09:50:20;98644.75;;;36.43;17.41
64294;BME280;50636;45.596;5.258;2023-04-27T09:52:46;98638.72;;;35.39;17.62
64294;BME280;50636;45.596;5.258;2023-04-27T09:55:33;98633.97;;;34.87;18.42
64294;BME280;50636;45.596;5.258;2023-04-27T10:09:00;98647.00;;;33.09;20.44
64294;BME280;50636;45.596;5.258;2023-04-27T10:11:38;98640.38;;;32.62;21.44
64294;BME280;50636;45.596;5.258;2023-04-27T10:14:07;98641.69;;;32.40;21.54
64294;BME280;50636;45.596;5.258;2023-04-27T10:16:50;98635.03;;;32.54;21.55
64294;BME280;50636;45.596;5.258;2023-04-27T10:19:17;98645.75;;;32.91;21.26
64294;BME280;50636;45.596;5.258;2023-04-27T10:21:57;98643.03;;;33.07;20.86
64294;BME280;50636;45.596;5.258;2023-04-27T10:27:04;98627.59;;;33.27;20.00
64294;BME280;50636;45.596;5.258;2023-04-27T10:29:40;98621.34;;;32.34;20.95
64294;BME280;50636;45.596;5.258;2023-04-27T10:34:48;98627.59;;;32.51;20.74
64294;BME280;50636;45.596;5.258;2023-04-27T10:37:14;98619.88;;;33.13;20.13
64294;BME280;50636;45.596;5.258;2023-04-27T10:39:42;98622.03;;;33.39;19.57
64294;BME280;50636;45.596;5.258;2023-04-27T10:42:09;98625.72;;;33.62;19.30
64294;BME280;50636;45.596;5.258;2023-04-27T10:44:36;98619.53;;;33.66;19.26
64294;BME280;50636;45.596;5.258;2023-04-27T10:47:12;98622.34;;;33.69;18.97
64294;BME280;50636;45.596;5.258;2023-04-27T10:49:38;98636.66;;;33.50;19.45
64294;BME280;50636;45.596;5.258;2023-04-27T10:52:05;98625.66;;;33.27;19.25
64294;BME280;50636;45.596;5.258;2023-04-27T10:54:31;98619.34;;;33.07;19.32
64294;BME280;50636;45.596;5.258;2023-04-27T10:57:08;98608.38;;;32.88;19.39
64294;BME280;50636;45.596;5.258;2023-04-27T10:59:54;98610.66;;;33.17;19.14
64294;BME280;50636;45.596;5.258;2023-04-27T11:02:27;98614.94;;;33.34;18.29
64294;BME280;50636;45.596;5.258;2023-04-27T11:04:54;98617.69;;;33.18;19.12
64294;BME280;50636;45.596;5.258;2023-04-27T11:07:25;98607.25;;;33.20;18.79
64294;BME280;50636;45.596;5.258;2023-04-27T11:09:52;98606.31;;;33.48;18.62
64294;BME280;50636;45.596;5.258;2023-04-27T11:12:18;98599.06;;;33.72;18.27
64294;BME280;50636;45.596;5.258;2023-04-27T11:14:44;98595.56;;;34.10;18.14
64294;BME280;50636;45.596;5.258;2023-04-27T11:17:11;98609.53;;;34.28;18.03
64294;BME280;50636;45.596;5.258;2023-04-27T11:19:44;98603.22;;;34.44;18.10
64294;BME280;50636;45.596;5.258;2023-04-27T11:22:12;98600.38;;;34.59;17.94
64294;BME280;50636;45.596;5.258;2023-04-27T11:24:51;98599.06;;;34.11;17.75
64294;BME280;50636;45.596;5.258;2023-04-27T11:27:18;98600.22;;;33.90;17.92
64294;BME280;50636;45.596;5.258;2023-04-27T11:29:46;98596.44;;;33.95;18.13
64294;BME280;50636;45.596;5.258;2023-04-27T11:32:19;98590.66;;;33.61;18.58
64294;BME280;50636;45.596;5.258;2023-04-27T11:34:52;98592.13;;;33.07;18.70
64294;BME280;50636;45.596;5.258;2023-04-27T11:37:23;98593.81;;;33.12;19.33
64294;BME280;50636;45.596;5.258;2023-04-27T11:39:50;98598.53;;;33.31;18.17
64294;BME280;50636;45.596;5.258;2023-04-27T11:42:24;98596.22;;;33.49;18.31
64294;BME280;50636;45.596;5.258;2023-04-27T11:44:57;98593.53;;;33.68;18.00
64294;BME280;50636;45.596;5.258;2023-04-27T11:47:26;98587.47;;;33.94;17.96
64294;BME280;50636;45.596;5.258;2023-04-27T11:49:57;98585.41;;;34.69;17.33
64294;BME280;50636;45.596;5.258;2023-04-27T11:52:34;98583.09;;;34.71;17.27
64294;BME280;50636;45.596;5.258;2023-04-27T11:55:01;98583.19;;;34.78;17.41
64294;BME280;50636;45.596;5.258;2023-04-27T11:57:32;98578.09;;;35.00;17.02
64294;BME280;50636;45.596;5.258;2023-04-27T12:00:00;98581.28;;;35.59;16.84
64294;BME280;50636;45.596;5.258;2023-04-27T12:02:28;98573.22;;;35.66;16.53
64294;BME280;50636;45.596;5.258;2023-04-27T12:04:54;98572.03;;;34.87;16.93
64294;BME280;50636;45.596;5.258;2023-04-27T12:07:20;98566.78;;;34.13;17.92
64294;BME280;50636;45.596;5.258;2023-04-27T12:09:46;98580.66;;;34.04;18.30
64294;BME280;50636;45.596;5.258;2023-04-27T12:12:12;98574.78;;;33.82;17.95
64294;BME280;50636;45.596;5.258;2023-04-27T12:14:39;98579.97;;;32.69;18.97
64294;BME280;50636;45.596;5.258;2023-04-27T12:17:05;98577.75;;;32.15;19.82
64294;BME280;50636;45.596;5.258;2023-04-27T12:19:31;98583.41;;;32.54;19.42
64294;BME280;50636;45.596;5.258;2023-04-27T12:21:57;98579.44;;;32.79;19.40
64294;BME280;50636;45.596;5.258;2023-04-27T12:24:23;98580.94;;;33.09;18.71
64294;BME280;50636;45.596;5.258;2023-04-27T12:26:50;98585.97;;;33.77;18.36
64294;BME280;50636;45.596;5.258;2023-04-27T12:29:18;98580.91;;;34.15;17.31
64294;BME280;50636;45.596;5.258;2023-04-27T12:31:45;98573.69;;;34.07;17.82
64294;BME280;50636;45.596;5.258;2023-04-27T12:34:11;98575.78;;;33.94;18.21
64294;BME280;50636;45.596;5.258;2023-04-27T12:36:36;98581.34;;;33.62;17.86
64294;BME280;50636;45.596;5.258;2023-04-27T12:39:19;98578.19;;;33.25;18.85
64294;BME280;50636;45.596;5.258;2023-04-27T12:41:46;98581.75;;;32.49;18.72
64294;BME280;50636;45.596;5.258;2023-04-27T12:44:13;98581.56;;;32.26;18.77
64294;BME280;50636;45.596;5.258;2023-04-27T12:46:40;98585.88;;;32.43;18.75
64294;BME280;50636;45.596;5.258;2023-04-27T12:49:07;98578.78;;;32.54;18.58
64294;BME280;50636;45.596;5.258;2023-04-27T12:51:33;98575.94;;;32.63;18.39
64294;BME280;50636;45.596;5.258;2023-04-27T12:53:59;98579.53;;;32.83;18.28
64294;BME280;50636;45.596;5.258;2023-04-27T12:56:29;98571.19;;;32.92;18.56
64294;BME280;50636;45.596;5.258;2023-04-27T12:58:54;98573.22;;;32.95;18.59
64294;BME280;50636;45.596;5.258;2023-04-27T13:01:21;98568.41;;;32.72;18.41
64294;BME280;50636;45.596;5.258;2023-04-27T13:03:53;98570.66;;;32.54;18.60
64294;BME280;50636;45.596;5.258;2023-04-27T13:06:20;98570.81;;;32.17;18.89
64294;BME280;50636;45.596;5.258;2023-04-27T13:08:48;98569.78;;;31.65;19.27
64294;BME280;50636;45.596;5.258;2023-04-27T13:11:14;98563.50;;;31.00;19.85
64294;BME280;50636;45.596;5.258;2023-04-27T13:13:41;98562.88;;;30.70;20.98
64294;BME280;50636;45.596;5.258;2023-04-27T13:16:07;98559.25;;;30.53;20.55